sensor_id;sensor_type;location;lat;lon;timestamp;pressure;altitude;pressure_sealevel;temperature;humidity
52653;BME280;39353;42.864;12.014;2023-04-06T00:00:27;97513.23;;;22.17;45.42
52653;BME280;39353;42.864;12.014;2023-04-06T00:03:13;97515.21;;;22.17;45.29
52653;BME280;39353;42.864;12.014;2023-04-06T00:05:56;97514.74;;;22.16;45.37
52653;BME280;39353;42.864;12.014;2023-04-06T00:08:23;97512.96;;;22.15;45.40
52653;BME280;39353;42.864;12.014;2023-04-06T00:10:50;97517.77;;;22.13;45.33
52653;BME280;39353;42.864;12.014;2023-04-06T00:13:17;97515.01;;;22.11;45.26
52653;BME280;39353;42.864;12.014;2023-04-06T00:15:44;97517.47;;;22.09;45.39
52653;BME280;39353;42.864;12.014;2023-04-06T00:18:26;97518.25;;;22.08;45.47
52653;BME280;39353;42.864;12.014;2023-04-06T00:21:07;97517.94;;;22.06;45.24
52653;BME280;39353;42.864;12.014;2023-04-06T00:23:48;97517.86;;;22.06;45.34
52653;BME280;39353;42.864;12.014;2023-04-06T00:26:15;97517.81;;;22.04;45.49
52653;BME280;39353;42.864;12.014;2023-04-06T00:28:59;97520.31;;;22.01;45.46
52653;BME280;39353;42.864;12.014;2023-04-06T00:31:26;97522.90;;;22.00;45.45
52653;BME280;39353;42.864;12.014;2023-04-06T00:34:09;97520.64;;;21.99;45.42
52653;BME280;39353;42.864;12.014;2023-04-06T00:36:37;97522.75;;;21.98;45.36
52653;BME280;39353;42.864;12.014;2023-04-06T00:39:05;97520.11;;;21.98;45.34
52653;BME280;39353;42.864;12.014;2023-04-06T00:41:52;97519.85;;;21.96;45.28
52653;BME280;39353;42.864;12.014;2023-04-06T00:44:21;97521.96;;;21.95;45.39
52653;BME280;39353;42.864;12.014;2023-04-06T00:46:49;97520.23;;;21.94;45.34
52653;BME280;39353;42.864;12.014;2023-04-06T00:49:18;97518.68;;;21.93;45.48
52653;BME280;39353;42.864;12.014;2023-04-06T00:52:01;97520.05;;;21.91;45.49
52653;BME280;39353;42.864;12.014;2023-04-06T00:54:42;97523.70;;;21.88;45.44
52653;BME280;39353;42.864;12.014;2023-04-06T00:57:27;97521.95;;;21.86;45.58
52653;BME280;39353;42.864;12.014;2023-04-06T00:59:57;97520.66;;;21.85;45.40
52653;BME280;39353;42.864;12.014;2023-04-06T01:02:38;97518.31;;;21.85;45.35
52653;BME280;39353;42.864;12.014;2023-04-06T01:05:19;97519.62;;;21.85;45.54
52653;BME280;39353;42.864;12.014;2023-04-06T01:07:47;97519.23;;;21.84;45.44
52653;BME280;39353;42.864;12.014;2023-04-06T01:10:27;97516.16;;;21.84;45.48
52653;BME280;39353;42.864;12.014;2023-04-06T01:13:14;97517.95;;;21.83;45.53
52653;BME280;39353;42.864;12.014;2023-04-06T01:16:02;97514.05;;;21.82;45.52
52653;BME280;39353;42.864;12.014;2023-04-06T01:18:30;97514.05;;;21.82;45.58
52653;BME280;39353;42.864;12.014;2023-04-06T01:21:10;97510.29;;;21.81;45.62
52653;BME280;39353;42.864;12.014;2023-04-06T01:23:45;97511.27;;;21.79;45.57
52653;BME280;39353;42.864;12.014;2023-04-06T01:26:28;97508.56;;;21.78;45.41
52653;BME280;39353;42.864;12.014;2023-04-06T01:28:59;97509.69;;;21.75;45.49
52653;BME280;39353;42.864;12.014;2023-04-06T01:31:42;97507.02;;;21.73;45.48
52653;BME280;39353;42.864;12.014;2023-04-06T01:34:10;97509.06;;;21.72;45.57
52653;BME280;39353;42.864;12.014;2023-04-06T01:36:51;97513.91;;;21.71;45.78
52653;BME280;39353;42.864;12.014;2023-04-06T01:39:39;97511.39;;;21.71;45.76
52653;BME280;39353;42.864;12.014;2023-04-06T01:42:08;97510.77;;;21.70;45.81
52653;BME280;39353;42.864;12.014;2023-04-06T01:44:49;97509.22;;;21.70;45.83
52653;BME280;39353;42.864;12.014;2023-04-06T01:47:18;97511.14;;;21.68;45.84
52653;BME280;39353;42.864;12.014;2023-04-06T01:49:47;97511.24;;;21.66;45.85
52653;BME280;39353;42.864;12.014;2023-04-06T01:52:15;97511.30;;;21.64;45.84
52653;BME280;39353;42.864;12.014;2023-04-06T01:54:44;97511.23;;;21.62;46.02
52653;BME280;39353;42.864;12.014;2023-04-06T01:57:26;97514.07;;;21.59;45.99
52653;BME280;39353;42.864;12.014;2023-04-06T02:00:14;97516.88;;;21.57;45.95
52653;BME280;39353;42.864;12.014;2023-04-06T02:02:45;97520.13;;;21.56;46.00
52653;BME280;39353;42.864;12.014;2023-04-06T02:05:19;97518.27;;;21.54;46.05
52653;BME280;39353;42.864;12.014;2023-04-06T02:08:00;97518.06;;;21.53;46.07
52653;BME280;39353;42.864;12.014;2023-04-06T02:10:35;97516.79;;;21.50;46.10
52653;BME280;39353;42.864;12.014;2023-04-06T02:13:07;97516.48;;;21.49;46.12
52653;BME280;39353;42.864;12.014;2023-04-06T02:15:36;97515.08;;;21.47;46.05
52653;BME280;39353;42.864;12.014;2023-04-06T02:18:18;97513.52;;;21.47;46.11
52653;BME280;39353;42.864;12.014;2023-04-06T02:20:58;97512.61;;;21.45;46.02
52653;BME280;39353;42.864;12.014;2023-04-06T02:23:39;97511.73;;;21.45;46.25
52653;BME280;39353;42.864;12.014;2023-04-06T02:26:06;97514.17;;;21.45;46.18
52653;BME280;39353;42.864;12.014;2023-04-06T02:28:47;97513.77;;;21.44;46.16
52653;BME280;39353;42.864;12.014;2023-04-06T02:31:28;97516.21;;;21.43;46.07
52653;BME280;39353;42.864;12.014;2023-04-06T02:34:10;97515.23;;;21.41;45.99
52653;BME280;39353;42.864;12.014;2023-04-06T02:36:56;97518.48;;;21.40;45.89
52653;BME280;39353;42.864;12.014;2023-04-06T02:39:36;97516.82;;;21.38;46.10
52653;BME280;39353;42.864;12.014;2023-04-06T02:42:06;97518.88;;;21.37;46.06
52653;BME280;39353;42.864;12.014;2023-04-06T02:44:35;97519.02;;;21.37;46.05
52653;BME280;39353;42.864;12.014;2023-04-06T02:47:02;97523.23;;;21.35;46.05
52653;BME280;39353;42.864;12.014;2023-04-06T02:49:43;97521.38;;;21.35;45.99
52653;BME280;39353;42.864;12.014;2023-04-06T02:52:12;97525.03;;;21.35;46.09
52653;BME280;39353;42.864;12.014;2023-04-06T02:54:53;97525.63;;;21.35;46.06
52653;BME280;39353;42.864;12.014;2023-04-06T02:57:40;97527.86;;;21.35;46.16
52653;BME280;39353;42.864;12.014;2023-04-06T03:00:11;97526.18;;;21.35;45.90
52653;BME280;39353;42.864;12.014;2023-04-06T03:02:55;97521.56;;;21.34;45.91
52653;BME280;39353;42.864;12.014;2023-04-06T03:05:23;97521.70;;;21.33;46.13
52653;BME280;39353;42.864;12.014;2023-04-06T03:08:04;97521.58;;;21.33;45.90
52653;BME280;39353;42.864;12.014;2023-04-06T03:10:52;97520.53;;;21.30;45.90
52653;BME280;39353;42.864;12.014;2023-04-06T03:13:20;97525.02;;;21.28;46.01
52653;BME280;39353;42.864;12.014;2023-04-06T03:15:52;97525.91;;;21.26;45.88
52653;BME280;39353;42.864;12.014;2023-04-06T03:18:25;97512.44;;;21.25;45.87
52653;BME280;39353;42.864;12.014;2023-04-06T03:21:07;97511.02;;;21.25;45.62
52653;BME280;39353;42.864;12.014;2023-04-06T03:23:43;97515.85;;;21.24;45.52
52653;BME280;39353;42.864;12.014;2023-04-06T03:26:11;97522.65;;;21.24;45.53
52653;BME280;39353;42.864;12.014;2023-04-06T03:28:52;97526.56;;;21.23;45.43
52653;BME280;39353;42.864;12.014;2023-04-06T03:31:35;97530.73;;;21.22;45.60
52653;BME280;39353;42.864;12.014;2023-04-06T03:34:08;97529.88;;;21.21;45.62
52653;BME280;39353;42.864;12.014;2023-04-06T03:36:50;97528.08;;;21.19;45.61
52653;BME280;39353;42.864;12.014;2023-04-06T03:39:33;97527.60;;;21.18;45.72
52653;BME280;39353;42.864;12.014;2023-04-06T03:42:01;97530.96;;;21.17;45.64
52653;BME280;39353;42.864;12.014;2023-04-06T03:44:30;97533.66;;;21.16;45.67
52653;BME280;39353;42.864;12.014;2023-04-06T03:47:11;97531.29;;;21.15;45.96
52653;BME280;39353;42.864;12.014;2023-04-06T03:49:52;97531.59;;;21.14;45.99
52653;BME280;39353;42.864;12.014;2023-04-06T03:52:19;97529.59;;;21.13;45.86
52653;BME280;39353;42.864;12.014;2023-04-06T03:54:46;97531.16;;;21.11;46.00
52653;BME280;39353;42.864;12.014;2023-04-06T03:57:19;97529.16;;;21.08;46.02
52653;BME280;39353;42.864;12.014;2023-04-06T03:59:56;97530.99;;;21.07;46.24
52653;BME280;39353;42.864;12.014;2023-04-06T04:02:39;97535.36;;;21.06;46.20
52653;BME280;39353;42.864;12.014;2023-04-06T04:05:07;97539.77;;;21.04;46.25
52653;BME280;39353;42.864;12.014;2023-04-06T04:07:47;97543.36;;;21.05;46.23
52653;BME280;39353;42.864;12.014;2023-04-06T04:10:28;97544.59;;;21.05;46.34
52653;BME280;39353;42.864;12.014;2023-04-06T04:13:10;97549.94;;;21.06;46.36
52653;BME280;39353;42.864;12.014;2023-04-06T04:15:53;97549.54;;;21.05;46.32
52653;BME280;39353;42.864;12.014;2023-04-06T04:18:34;97547.94;;;21.04;46.25
52653;BME280;39353;42.864;12.014;2023-04-06T04:21:14;97548.83;;;21.03;46.30
52653;BME280;39353;42.864;12.014;2023-04-06T04:23:55;97552.03;;;21.03;46.39
52653;BME280;39353;42.864;12.014;2023-04-06T04:26:37;97555.98;;;21.02;46.23
52653;BME280;39353;42.864;12.014;2023-04-06T04:29:21;97555.33;;;21.01;46.29
52653;BME280;39353;42.864;12.014;2023-04-06T04:31:51;97557.64;;;21.01;46.58
52653;BME280;39353;42.864;12.014;2023-04-06T04:34:33;97559.67;;;20.99;46.46
52653;BME280;39353;42.864;12.014;2023-04-06T04:37:13;97561.44;;;20.97;46.55
52653;BME280;39353;42.864;12.014;2023-04-06T04:39:49;97557.09;;;20.95;46.56
52653;BME280;39353;42.864;12.014;2023-04-06T04:42:24;97557.23;;;20.94;46.45
52653;BME280;39353;42.864;12.014;2023-04-06T04:44:54;97553.52;;;20.92;46.58
52653;BME280;39353;42.864;12.014;2023-04-06T04:47:45;97552.63;;;20.92;46.41
52653;BME280;39353;42.864;12.014;2023-04-06T04:50:14;97554.05;;;20.92;46.50
52653;BME280;39353;42.864;12.014;2023-04-06T04:52:57;97557.30;;;20.91;46.43
52653;BME280;39353;42.864;12.014;2023-04-06T04:55:40;97557.14;;;20.91;46.56
52653;BME280;39353;42.864;12.014;2023-04-06T04:58:07;97559.91;;;20.91;46.57
52653;BME280;39353;42.864;12.014;2023-04-06T05:00:37;97561.23;;;20.91;46.36
52653;BME280;39353;42.864;12.014;2023-04-06T05:03:05;97562.05;;;20.91;46.44
52653;BME280;39353;42.864;12.014;2023-04-06T05:05:37;97562.98;;;20.89;46.38
52653;BME280;39353;42.864;12.014;2023-04-06T05:08:18;97569.14;;;20.87;46.48
52653;BME280;39353;42.864;12.014;2023-04-06T05:11:03;97567.84;;;20.86;46.58
52653;BME280;39353;42.864;12.014;2023-04-06T05:13:34;97569.35;;;20.86;46.52
52653;BME280;39353;42.864;12.014;2023-04-06T05:16:06;97573.47;;;20.85;46.67
52653;BME280;39353;42.864;12.014;2023-04-06T05:18:49;97572.27;;;20.85;46.63
52653;BME280;39353;42.864;12.014;2023-04-06T05:21:30;97572.11;;;20.86;46.72
52653;BME280;39353;42.864;12.014;2023-04-06T05:24:02;97575.80;;;20.86;46.63
52653;BME280;39353;42.864;12.014;2023-04-06T05:26:45;97577.45;;;20.86;46.45
52653;BME280;39353;42.864;12.014;2023-04-06T05:29:35;97580.95;;;20.87;46.57
52653;BME280;39353;42.864;12.014;2023-04-06T05:32:20;97581.70;;;20.88;46.58
52653;BME280;39353;42.864;12.014;2023-04-06T05:35:05;97585.47;;;20.90;46.43
52653;BME280;39353;42.864;12.014;2023-04-06T05:37:36;97588.23;;;20.91;46.41
52653;BME280;39353;42.864;12.014;2023-04-06T05:40:18;97587.84;;;20.92;46.40
52653;BME280;39353;42.864;12.014;2023-04-06T05:42:45;97585.64;;;20.94;46.41
52653;BME280;39353;42.864;12.014;2023-04-06T05:45:27;97587.95;;;20.94;46.45
52653;BME280;39353;42.864;12.014;2023-04-06T05:48:11;97591.35;;;20.93;46.40
52653;BME280;39353;42.864;12.014;2023-04-06T05:50:52;97593.77;;;20.94;46.37
52653;BME280;39353;42.864;12.014;2023-04-06T05:53:36;97594.82;;;20.94;46.50
52653;BME280;39353;42.864;12.014;2023-04-06T05:56:18;97597.16;;;20.96;46.44
52653;BME280;39353;42.864;12.014;2023-04-06T05:58:46;97599.63;;;20.96;46.45
52653;BME280;39353;42.864;12.014;2023-04-06T06:01:20;97602.23;;;20.96;46.41
52653;BME280;39353;42.864;12.014;2023-04-06T06:03:49;97605.70;;;20.94;46.45
52653;BME280;39353;42.864;12.014;2023-04-06T06:06:30;97604.32;;;20.93;46.63
52653;BME280;39353;42.864;12.014;2023-04-06T06:09:19;97606.83;;;20.93;46.54
52653;BME280;39353;42.864;12.014;2023-04-06T06:11:54;97605.41;;;20.93;46.58
52653;BME280;39353;42.864;12.014;2023-04-06T06:14:24;97607.64;;;20.92;46.49
52653;BME280;39353;42.864;12.014;2023-04-06T06:17:05;97611.07;;;20.93;46.64
52653;BME280;39353;42.864;12.014;2023-04-06T06:19:32;97612.98;;;20.92;46.68
52653;BME280;39353;42.864;12.014;2023-04-06T06:22:16;97610.27;;;20.91;46.61
52653;BME280;39353;42.864;12.014;2023-04-06T06:24:46;97609.25;;;20.90;46.69
52653;BME280;39353;42.864;12.014;2023-04-06T06:27:27;97609.56;;;20.90;46.75
52653;BME280;39353;42.864;12.014;2023-04-06T06:29:55;97610.86;;;20.89;46.77
52653;BME280;39353;42.864;12.014;2023-04-06T06:32:23;97610.61;;;20.88;46.70
52653;BME280;39353;42.864;12.014;2023-04-06T06:34:51;97611.16;;;20.88;46.65
52653;BME280;39353;42.864;12.014;2023-04-06T06:37:34;97614.09;;;20.90;46.52
52653;BME280;39353;42.864;12.014;2023-04-06T06:40:01;97613.85;;;20.89;46.52
52653;BME280;39353;42.864;12.014;2023-04-06T06:42:45;97612.05;;;20.87;46.57
52653;BME280;39353;42.864;12.014;2023-04-06T06:45:25;97614.98;;;20.88;46.56
52653;BME280;39353;42.864;12.014;2023-04-06T06:47:52;97614.42;;;20.90;46.65
52653;BME280;39353;42.864;12.014;2023-04-06T06:50:33;97619.04;;;20.90;46.64
52653;BME280;39353;42.864;12.014;2023-04-06T06:53:14;97622.20;;;20.92;46.56
52653;BME280;39353;42.864;12.014;2023-04-06T06:55:56;97626.50;;;20.95;46.66
52653;BME280;39353;42.864;12.014;2023-04-06T06:58:41;97623.71;;;20.97;46.74
52653;BME280;39353;42.864;12.014;2023-04-06T07:01:09;97623.80;;;20.97;46.93
52653;BME280;39353;42.864;12.014;2023-04-06T07:03:36;97621.92;;;20.99;47.00
52653;BME280;39353;42.864;12.014;2023-04-06T07:06:21;97624.19;;;21.02;46.63
52653;BME280;39353;42.864;12.014;2023-04-06T07:08:50;97624.63;;;21.04;46.31
52653;BME280;39353;42.864;12.014;2023-04-06T07:11:18;97622.77;;;21.05;46.36
52653;BME280;39353;42.864;12.014;2023-04-06T07:13:46;97622.38;;;21.06;46.09
52653;BME280;39353;42.864;12.014;2023-04-06T07:16:13;97626.12;;;21.08;45.91
52653;BME280;39353;42.864;12.014;2023-04-06T07:18:54;97628.05;;;21.10;45.84
52653;BME280;39353;42.864;12.014;2023-04-06T07:21:37;97632.29;;;21.13;45.80
52653;BME280;39353;42.864;12.014;2023-04-06T07:24:18;97631.89;;;21.16;45.68
52653;BME280;39353;42.864;12.014;2023-04-06T07:26:45;97629.50;;;21.16;45.31
52653;BME280;39353;42.864;12.014;2023-04-06T07:29:12;97630.63;;;21.18;45.73
52653;BME280;39353;42.864;12.014;2023-04-06T07:31:41;97630.97;;;21.20;45.84
52653;BME280;39353;42.864;12.014;2023-04-06T07:34:22;97631.70;;;21.19;45.59
52653;BME280;39353;42.864;12.014;2023-04-06T07:37:03;97629.36;;;21.17;45.65
52653;BME280;39353;42.864;12.014;2023-04-06T07:39:46;97627.61;;;21.17;45.74
52653;BME280;39353;42.864;12.014;2023-04-06T07:42:14;97626.20;;;21.15;45.52
52653;BME280;39353;42.864;12.014;2023-04-06T07:44:47;97630.28;;;21.13;44.98
52653;BME280;39353;42.864;12.014;2023-04-06T07:47:16;97629.52;;;21.12;45.16
52653;BME280;39353;42.864;12.014;2023-04-06T07:49:57;97625.49;;;21.12;45.35
52653;BME280;39353;42.864;12.014;2023-04-06T07:52:39;97626.41;;;21.12;45.21
52653;BME280;39353;42.864;12.014;2023-04-06T07:55:21;97628.56;;;21.11;45.24
52653;BME280;39353;42.864;12.014;2023-04-06T07:58:04;97627.52;;;21.11;45.31
52653;BME280;39353;42.864;12.014;2023-04-06T08:00:31;97625.77;;;21.11;45.43
52653;BME280;39353;42.864;12.014;2023-04-06T08:02:59;97624.29;;;21.11;45.43
52653;BME280;39353;42.864;12.014;2023-04-06T08:05:26;97625.27;;;21.10;45.07
52653;BME280;39353;42.864;12.014;2023-04-06T08:07:53;97624.67;;;21.10;45.42
52653;BME280;39353;42.864;12.014;2023-04-06T08:10:35;97627.44;;;21.12;45.61
52653;BME280;39353;42.864;12.014;2023-04-06T08:13:03;97631.06;;;21.16;45.88
52653;BME280;39353;42.864;12.014;2023-04-06T08:15:30;97636.09;;;21.20;45.98
52653;BME280;39353;42.864;12.014;2023-04-06T08:17:56;97639.58;;;21.23;46.08
52653;BME280;39353;42.864;12.014;2023-04-06T08:20:27;97639.17;;;21.26;46.18
52653;BME280;39353;42.864;12.014;2023-04-06T08:23:10;97640.95;;;21.26;45.50
52653;BME280;39353;42.864;12.014;2023-04-06T08:25:51;97636.46;;;21.30;45.66
52653;BME280;39353;42.864;12.014;2023-04-06T08:28:34;97636.52;;;21.23;41.52
52653;BME280;39353;42.864;12.014;2023-04-06T08:31:05;97635.45;;;21.20;43.90
52653;BME280;39353;42.864;12.014;2023-04-06T08:33:47;97634.11;;;21.21;44.04
52653;BME280;39353;42.864;12.014;2023-04-06T08:36:15;97634.50;;;21.23;45.33
52653;BME280;39353;42.864;12.014;2023-04-06T08:39:00;97639.13;;;21.24;46.35
52653;BME280;39353;42.864;12.014;2023-04-06T08:41:27;97643.06;;;21.24;46.43
52653;BME280;39353;42.864;12.014;2023-04-06T08:44:09;97637.84;;;21.25;46.00
52653;BME280;39353;42.864;12.014;2023-04-06T08:46:50;97636.23;;;21.26;45.37
52653;BME280;39353;42.864;12.014;2023-04-06T08:49:34;97633.48;;;21.20;41.54
52653;BME280;39353;42.864;12.014;2023-04-06T08:52:18;97637.39;;;21.16;43.69
52653;BME280;39353;42.864;12.014;2023-04-06T08:54:47;97640.15;;;21.17;44.61
52653;BME280;39353;42.864;12.014;2023-04-06T08:57:29;97638.30;;;21.18;45.19
52653;BME280;39353;42.864;12.014;2023-04-06T09:00:12;97637.33;;;21.19;44.74
52653;BME280;39353;42.864;12.014;2023-04-06T09:02:54;97636.74;;;21.18;44.87
52653;BME280;39353;42.864;12.014;2023-04-06T09:05:36;97634.85;;;21.18;45.15
52653;BME280;39353;42.864;12.014;2023-04-06T09:08:05;97636.13;;;21.19;45.38
52653;BME280;39353;42.864;12.014;2023-04-06T09:10:32;97638.31;;;21.17;45.43
52653;BME280;39353;42.864;12.014;2023-04-06T09:13:13;97639.45;;;21.15;45.54
52653;BME280;39353;42.864;12.014;2023-04-06T09:16:03;97636.09;;;21.15;45.56
52653;BME280;39353;42.864;12.014;2023-04-06T09:18:33;97637.83;;;21.14;45.75
52653;BME280;39353;42.864;12.014;2023-04-06T09:21:02;97635.02;;;21.13;45.69
52653;BME280;39353;42.864;12.014;2023-04-06T09:23:31;97633.34;;;21.12;45.78
52653;BME280;39353;42.864;12.014;2023-04-06T09:26:14;97633.14;;;21.11;45.84
52653;BME280;39353;42.864;12.014;2023-04-06T09:28:52;97635.42;;;21.10;45.84
52653;BME280;39353;42.864;12.014;2023-04-06T09:31:34;97640.77;;;21.11;45.98
52653;BME280;39353;42.864;12.014;2023-04-06T09:34:01;97639.03;;;21.11;45.86
52653;BME280;39353;42.864;12.014;2023-04-06T09:36:42;97637.64;;;21.10;45.86
52653;BME280;39353;42.864;12.014;2023-04-06T09:39:24;97636.69;;;21.09;45.81
52653;BME280;39353;42.864;12.014;2023-04-06T09:42:04;97642.15;;;21.09;45.76
52653;BME280;39353;42.864;12.014;2023-04-06T09:44:46;97646.86;;;21.08;45.85
52653;BME280;39353;42.864;12.014;2023-04-06T09:47:15;97646.11;;;21.07;45.85
52653;BME280;39353;42.864;12.014;2023-04-06T09:49:46;97643.63;;;21.07;45.81
52653;BME280;39353;42.864;12.014;2023-04-06T09:52:42;97640.36;;;21.07;45.92
52653;BME280;39353;42.864;12.014;2023-04-06T09:55:12;97635.34;;;21.06;45.78
52653;BME280;39353;42.864;12.014;2023-04-06T10:00:32;97635.11;;;21.06;46.04
52653;BME280;39353;42.864;12.014;2023-04-06T10:03:18;97636.54;;;21.07;45.88
52653;BME280;39353;42.864;12.014;2023-04-06T10:05:54;97639.22;;;21.07;45.89
52653;BME280;39353;42.864;12.014;2023-04-06T10:08:39;97633.37;;;21.06;45.92
52653;BME280;39353;42.864;12.014;2023-04-06T10:11:08;97631.94;;;21.06;45.82
52653;BME280;39353;42.864;12.014;2023-04-06T10:13:51;97626.64;;;21.06;45.94
52653;BME280;39353;42.864;12.014;2023-04-06T10:16:17;97622.29;;;21.06;45.78
52653;BME280;39353;42.864;12.014;2023-04-06T10:18:52;97624.42;;;21.06;45.65
52653;BME280;39353;42.864;12.014;2023-04-06T10:21:37;97619.23;;;21.06;45.76
52653;BME280;39353;42.864;12.014;2023-04-06T10:24:21;97620.96;;;21.05;45.61
52653;BME280;39353;42.864;12.014;2023-04-06T10:27:03;97616.79;;;21.04;45.69
52653;BME280;39353;42.864;12.014;2023-04-06T10:29:47;97615.95;;;21.03;45.70
52653;BME280;39353;42.864;12.014;2023-04-06T10:32:16;97614.98;;;21.02;45.87
52653;BME280;39353;42.864;12.014;2023-04-06T10:35:07;97617.23;;;21.01;45.71
52653;BME280;39353;42.864;12.014;2023-04-06T10:38:03;97614.26;;;20.98;45.84
52653;BME280;39353;42.864;12.014;2023-04-06T10:40:43;97614.27;;;20.97;45.85
52653;BME280;39353;42.864;12.014;2023-04-06T10:43:25;97614.95;;;20.95;45.71
52653;BME280;39353;42.864;12.014;2023-04-06T10:46:00;97613.58;;;20.94;45.67
52653;BME280;39353;42.864;12.014;2023-04-06T10:48:43;97611.25;;;20.93;45.70
52653;BME280;39353;42.864;12.014;2023-04-06T10:51:26;97609.77;;;20.91;45.80
52653;BME280;39353;42.864;12.014;2023-04-06T10:54:11;97608.23;;;20.89;45.68
52653;BME280;39353;42.864;12.014;2023-04-06T10:56:53;97605.13;;;20.87;45.85
52653;BME280;39353;42.864;12.014;2023-04-06T10:59:21;97604.41;;;20.87;45.82
52653;BME280;39353;42.864;12.014;2023-04-06T11:02:02;97601.96;;;20.86;45.68
52653;BME280;39353;42.864;12.014;2023-04-06T11:04:29;97603.29;;;20.86;45.83
52653;BME280;39353;42.864;12.014;2023-04-06T11:06:56;97603.50;;;20.86;45.77
52653;BME280;39353;42.864;12.014;2023-04-06T11:09:27;97602.83;;;20.87;45.74
52653;BME280;39353;42.864;12.014;2023-04-06T11:11:59;97601.84;;;20.90;44.80
52653;BME280;39353;42.864;12.014;2023-04-06T11:15:02;97598.41;;;20.92;43.23
52653;BME280;39353;42.864;12.014;2023-04-06T11:17:46;97596.90;;;20.91;43.33
52653;BME280;39353;42.864;12.014;2023-04-06T11:20:13;97590.66;;;20.92;42.82
52653;BME280;39353;42.864;12.014;2023-04-06T11:22:54;97589.21;;;20.88;39.46
52653;BME280;39353;42.864;12.014;2023-04-06T11:25:35;97586.05;;;20.85;40.18
52653;BME280;39353;42.864;12.014;2023-04-06T11:28:02;97581.25;;;20.83;40.88
52653;BME280;39353;42.864;12.014;2023-04-06T11:30:43;97575.45;;;20.80;40.90
52653;BME280;39353;42.864;12.014;2023-04-06T11:33:24;97571.45;;;20.79;41.36
52653;BME280;39353;42.864;12.014;2023-04-06T11:36:05;97566.58;;;20.79;41.49
52653;BME280;39353;42.864;12.014;2023-04-06T11:38:47;97570.46;;;20.79;41.69
52653;BME280;39353;42.864;12.014;2023-04-06T11:41:28;97565.18;;;20.79;41.74
52653;BME280;39353;42.864;12.014;2023-04-06T11:43:56;97565.98;;;20.79;41.81
52653;BME280;39353;42.864;12.014;2023-04-06T11:46:39;97565.13;;;20.80;42.00
52653;BME280;39353;42.864;12.014;2023-04-06T11:49:20;97565.06;;;20.79;42.09
52653;BME280;39353;42.864;12.014;2023-04-06T11:51:48;97569.09;;;20.79;42.28
52653;BME280;39353;42.864;12.014;2023-04-06T11:54:15;97565.82;;;20.79;42.11
52653;BME280;39353;42.864;12.014;2023-04-06T11:56:57;97562.98;;;20.78;42.35
52653;BME280;39353;42.864;12.014;2023-04-06T11:59:24;97562.55;;;20.80;42.60
52653;BME280;39353;42.864;12.014;2023-04-06T12:02:05;97560.17;;;20.80;42.77
52653;BME280;39353;42.864;12.014;2023-04-06T12:04:32;97561.92;;;20.80;42.88
52653;BME280;39353;42.864;12.014;2023-04-06T12:07:13;97560.88;;;20.80;43.09
52653;BME280;39353;42.864;12.014;2023-04-06T12:09:55;97556.88;;;20.79;43.14
52653;BME280;39353;42.864;12.014;2023-04-06T12:12:36;97553.14;;;20.78;43.19
52653;BME280;39353;42.864;12.014;2023-04-06T12:15:03;97549.30;;;20.77;43.26
52653;BME280;39353;42.864;12.014;2023-04-06T12:17:45;97544.80;;;20.76;42.97
52653;BME280;39353;42.864;12.014;2023-04-06T12:20:13;97549.33;;;20.76;43.23
52653;BME280;39353;42.864;12.014;2023-04-06T12:22:54;97546.61;;;20.75;43.15
52653;BME280;39353;42.864;12.014;2023-04-06T12:25:35;97539.58;;;20.73;42.82
52653;BME280;39353;42.864;12.014;2023-04-06T12:28:02;97539.96;;;20.72;42.69
52653;BME280;39353;42.864;12.014;2023-04-06T12:30:29;97535.66;;;20.70;42.64
52653;BME280;39353;42.864;12.014;2023-04-06T12:33:10;97536.23;;;20.68;42.67
52653;BME280;39353;42.864;12.014;2023-04-06T12:35:51;97533.59;;;20.67;42.51
52653;BME280;39353;42.864;12.014;2023-04-06T12:38:18;97533.04;;;20.72;43.04
52653;BME280;39353;42.864;12.014;2023-04-06T12:40:45;97525.97;;;20.76;43.95
52653;BME280;39353;42.864;12.014;2023-04-06T12:43:12;97521.98;;;20.81;45.55
52653;BME280;39353;42.864;12.014;2023-04-06T12:45:55;97521.83;;;20.85;46.25
52653;BME280;39353;42.864;12.014;2023-04-06T12:48:23;97514.13;;;20.87;46.76
52653;BME280;39353;42.864;12.014;2023-04-06T12:50:58;97514.75;;;20.88;47.30
52653;BME280;39353;42.864;12.014;2023-04-06T12:53:39;97514.67;;;20.90;48.06
52653;BME280;39353;42.864;12.014;2023-04-06T12:56:15;97511.91;;;20.93;48.94
52653;BME280;39353;42.864;12.014;2023-04-06T12:58:56;97519.55;;;20.98;49.11
52653;BME280;39353;42.864;12.014;2023-04-06T13:01:24;97519.43;;;21.02;49.67
52653;BME280;39353;42.864;12.014;2023-04-06T13:03:56;97519.23;;;21.04;50.28
52653;BME280;39353;42.864;12.014;2023-04-06T13:06:26;97517.05;;;21.08;51.07
52653;BME280;39353;42.864;12.014;2023-04-06T13:09:07;97513.85;;;21.09;50.71
52653;BME280;39353;42.864;12.014;2023-04-06T13:11:37;97514.36;;;21.08;50.25
52653;BME280;39353;42.864;12.014;2023-04-06T13:14:04;97517.20;;;21.06;49.53
52653;BME280;39353;42.864;12.014;2023-04-06T13:16:31;97516.30;;;21.04;48.84
52653;BME280;39353;42.864;12.014;2023-04-06T13:18:58;97518.31;;;21.04;48.14
52653;BME280;39353;42.864;12.014;2023-04-06T13:21:40;97515.59;;;21.04;46.68
52653;BME280;39353;42.864;12.014;2023-04-06T13:24:25;97506.30;;;20.97;40.37
52653;BME280;39353;42.864;12.014;2023-04-06T13:26:55;97502.13;;;20.83;35.57
52653;BME280;39353;42.864;12.014;2023-04-06T13:29:22;97509.45;;;20.74;36.75
52653;BME280;39353;42.864;12.014;2023-04-06T13:32:04;97505.84;;;20.73;38.54
52653;BME280;39353;42.864;12.014;2023-04-06T13:34:45;97508.17;;;20.78;40.35
52653;BME280;39353;42.864;12.014;2023-04-06T13:37:15;97515.73;;;20.80;41.47
52653;BME280;39353;42.864;12.014;2023-04-06T13:39:42;97513.54;;;20.82;41.98